Airfield :
LOGIN :

Register | Disclaimer

   EN    FR    IT 

 










Legend :    VFR   Marginal VFR   IFR   Intensive IFR   Very Intensive IFR
Visi :
Ceiling :
>= 8 km
>= 3000ft
5 to 8 km
1000 to 3000 ft
1500m to 5 km
500 to 1000 ft
800 to 1500m
200 to 500 ft
< 800m
< 200 ft
Symbols :   Thunderstorms  Fog  Heavy snow  Heavy precipitations  Wind > 20 kt
SIGMETs :     Misc.  Thunderstorms  Icing  Turbulence  Mountain Waves  Volcanic Ashes






- Airport Elevation : 512 ft
- IATA code : URO


LFOP - Rouen Vallée de Seine

CURRENT METAR :
  • 081030Z AUTO 18003KT 0550 0500 R22/0900U FG VV/// 02/01 Q1010 BECMG 7000 NSW OVC007

EXPIRED METARs :
  • 081000Z AUTO 18002KT 0700 0550 R22/1000N FG VV/// 01/01 Q1010 BECMG 2000 BR OVC004
  • 080930Z AUTO VRB02KT 0800 0650 R22/1300D FG VV/// 01/01 Q1010 BECMG 2000 BR OVC004
  • 080900Z AUTO 20003KT 0700 0550 R22/1100D FG VV/// 01/01 Q1010 BECMG 2000 BR OVC004
  • 080830Z AUTO 21004KT 0900 R22/1700U FG VV/// 01/01 Q1011 BECMG 2000 BR OVC004
  • 080800Z AUTO 21004KT 0600 0500 R22/0800D FG VV/// 01/01 Q1011 BECMG 2000 BR OVC004
  • 080730Z AUTO 20005KT 0700 0600 R22/1000N FG VV/// 01/01 Q1011 BECMG 2000 BR OVC004

TAF TAF LFOP
Valid from the 08 at 06:00 until the 09 at 06:00 UTC


080500Z 0806/0906 15003KT 0500 FG VV///
PROB30
TEMPO 0806/0808 FZFG
BECMG 0809/0812 2000 BR OVC004
BECMG 0812/0814 7000 NSW OVC007
BECMG 0817/0820 0300 FZFG VV///
ATIS : +33 2 35 80 80 34
Met : +33 2 32 86 52 80



MET'MAP, your aeronautical weather chart ! - Copyright ORBIFLY December 2007 - Disclaimer

ORBIFLY MET'MAP TEAM :

Programming & Development : Alexandra Zaïnal
Original concept : Baudouin d'Aumeries
Technical & hardware support : Manuel Goepfert
Assistance : Marc-Olivier Méhu




SOURCES & CREDITS :

   NOAA